Аэропорт: Донецк. Донецк

ICAO: UKCC

METAR:
2014/06/03 08:00
UKCC 030800Z 11011G16MPS 8000 NSC 23/07 Q1013 08090070 NOSIG
METAR:
2014/05/26 06:18
TAF UKCC 260508Z 2606/2706 01006G13MPS 9999 SCT030CB 
      TEMPO 2608/2621 VRB10G17MPS 2100 -TSRAGR SQ SCT010 BKN020CB 
      TEMPO 2621/2706 2100 -SHRA BR SCT007 BKN020CB TX27/2612Z TN17/2702Z